Terminal Aerodrome Forecast
Issued by NWS

Home | Current Version | Previous Version | Text Only | Print | Product List | Glossary On
Versions: 1 2 3 4 5 6 7 8 9 10 11 12 13 14 15 16 17 18 19 20 21 22 23 24 25 26 27 28 29 30 31 32 33 34 35 36 37 38 39 40 41 42 43 44 45 46 47 48 49 50
000
FTUS45 KBOU 272039 AAB
TAFAPA
TAF AMD
KAPA 272039Z 2721/2818 02006KT P6SM SCT012 BKN020 OVC025
     FM272200 03008KT P6SM SCT015 OVC025
     FM280000 10004KT P6SM SCT020 BKN035
     FM280500 22005KT P6SM SCT030 BKN040
     FM280800 22005KT P6SM SCT040
     FM281100 25004KT P6SM VCFG SCT004 SCT040=

USA.gov is the U.S. government's official web portal to all federal, state and local government web resources and services.